GUH weather

Gunnedah Airport
New South Wales, Australia

Public forecast

Using degrees Celsius for public forecast. Weather courtesy of forecast.io.

METAR (pilot weather report)

Closest report is Tamworth Airport, 31.5 nm (58.4 km) ESE. Retrieved 2019/04/23 19:30 UTC (22 minutes ago):

YSTW 231930Z AUTO 15007KT 9999 // NCD 15/10 Q1024 RF00.0/000.0

TAF (pilot weather forecast)

Closest forecast is Tamworth Airport, 31.5 nm (58.4 km) ESE. Retrieved 2019/04/23 18:36 UTC (1 hour ago):

TAF YSTW 231658Z 2318/2412 12008KT CAVOK